This is the latest recevied weather packets stored in our database for station/object KD8ZLZ. If no packets are shown the sender has not sent any weather packets the latest 10 day(s).
| Time | Temp. | Humidity | Pressure | Rain* | Wind** | Luminosity | Snow |
|---|---|---|---|---|---|---|---|
| 1777981253 | 13.89° C | 84% | 1004.8 hPa | 0 mm | - | - | - |
| 1777979153 | 13.89° C | 84% | 1004.4 hPa | 0 mm | - | - | - |
| 1777978833 | 13.89° C | 84% | 1003.8 hPa | 0 mm | - | - | - |
| 1777978233 | 13.89° C | 84% | 1003.8 hPa | 0 mm | - | - | - |
| 1777977633 | 13.89° C | 84% | 1003.8 hPa | 0 mm | - | - | - |
| 1777977373 | 14.44° C | 83% | 1003.8 hPa | 0 mm | - | - | - |
| 1777975233 | 14.44° C | 81% | 1003.5 hPa | 0 mm | - | - | - |
| 1777974053 | 15° C | 80% | 1003.5 hPa | 0 mm | - | - | - |
| 1777973133 | 15° C | 80% | 1003.5 hPa | 0 mm | - | - | - |
| 1777971633 | 14.44° C | 82% | 1003.5 hPa | 0 mm | - | - | - |
| 1777966833 | 14.44° C | 85% | 1002.2 hPa | 0 mm | - | - | - |
| 1777965933 | 14.44° C | 86% | 1002.5 hPa | 0 mm | - | - | - |
| 1777965633 | 14.44° C | 87% | 1002.5 hPa | 0 mm | - | - | - |
| 1777963833 | 15° C | 83% | 1002.8 hPa | 0 mm | - | - | - |
| 1777959933 | 15° C | 87% | 1002.5 hPa | 1.52 mm | - | - | - |
| 1777956332 | 15° C | 83% | 1002.7 hPa | 3.3 mm | - | - | - |
| 1777956033 | 15° C | 82% | 1002.7 hPa | 3.3 mm | - | - | - |
| 1777945232 | 19.44° C | 60% | 1001.9 hPa | 0 mm | - | - | - |
| 1777937133 | 16.67° C | 78% | 1000.9 hPa | 32.26 mm | - | - | - |
| 1777936533 | 17.22° C | 74% | 1000.6 hPa | 32.26 mm | - | - | - |
| 1777933533 | 25.56° C | 43% | 1001.6 hPa | 0 mm | - | - | - |
| 1777931733 | 25.56° C | 44% | 1002 hPa | 0 mm | - | - | - |
| 1777925433 | 25° C | 35% | 1002.9 hPa | 0 mm | - | - | - |
| 1777925132 | 25° C | 35% | 1003.2 hPa | 0 mm | - | - | - |
| 1777924534 | 25° C | 35% | 1003.3 hPa | 0 mm | - | - | - |
* Rain latest hour (hover to see other rain measurements)
** Current wind speed in m/s (hover to see current wind gust speed)